Time;durP1;ratioP1;P1;durP2;ratioP2;P2;SDS_P1;SDS_P2;PMS_P1;PMS_P2;Temp;Humidity;BMP_temperature;BMP_pressure;BME280_temperature;BME280_humidity;BME280_pressure;Samples;Min_cycle;Max_cycle;Signal;HPM_P1;HPM_P2
2022/07/27 00:01:43;;;;;;;6.88;2.70;;;16.40;99.90;;;;;;5051324;28;20052;-65
2022/07/27 00:04:17;;;;;;;8.82;2.47;;;16.40;99.90;;;;;;5046875;28;20126;-65
2022/07/27 00:06:45;;;;;;;7.15;2.80;;;16.40;99.90;;;;;;5050769;28;20470;-65
2022/07/27 00:09:12;;;;;;;7.05;2.35;;;16.40;99.90;;;;;;5050904;28;20056;-65
2022/07/27 00:11:40;;;;;;;10.77;2.67;;;16.40;99.90;;;;;;5049645;28;20045;-66
2022/07/27 00:14:07;;;;;;;7.00;2.55;;;16.40;99.90;;;;;;5047960;28;20140;-65
2022/07/27 00:16:34;;;;;;;6.68;2.50;;;16.50;99.90;;;;;;5049377;28;20056;-65
2022/07/27 00:19:01;;;;;;;7.53;2.63;;;16.50;99.90;;;;;;5032019;28;20519;-65
2022/07/27 00:21:27;;;;;;;6.45;2.28;;;16.50;99.90;;;;;;5049743;28;20400;-65
2022/07/27 00:23:55;;;;;;;9.02;2.50;;;16.50;99.90;;;;;;5048662;28;20059;-66
2022/07/27 00:26:22;;;;;;;9.35;3.35;;;16.50;99.90;;;;;;5048165;28;20504;-65
2022/07/27 00:28:49;;;;;;;10.52;3.03;;;16.50;99.90;;;;;;5048785;28;20052;-62
2022/07/27 00:31:16;;;;;;;8.23;2.47;;;16.50;99.90;;;;;;5047049;28;20049;-66
2022/07/27 00:33:43;;;;;;;10.32;2.53;;;16.40;99.90;;;;;;5052676;28;20060;-65
2022/07/27 00:36:10;;;;;;;7.03;3.53;;;16.50;99.90;;;;;;5051599;28;20049;-62
2022/07/27 00:38:37;;;;;;;7.03;2.60;;;16.50;99.90;;;;;;5052869;28;20049;-64
2022/07/27 00:41:04;;;;;;;11.68;2.83;;;16.50;99.90;;;;;;5052389;28;20518;-65
2022/07/27 00:43:30;;;;;;;8.13;2.72;;;16.40;99.90;;;;;;5053085;28;20488;-63
2022/07/27 00:45:57;;;;;;;9.38;2.65;;;16.40;99.90;;;;;;5052544;28;20045;-67
2022/07/27 00:48:24;;;;;;;6.22;2.72;;;16.40;99.90;;;;;;5051122;28;20052;-63
2022/07/27 00:50:53;;;;;;;9.50;2.80;;;16.30;99.90;;;;;;5054621;28;20114;-63
2022/07/27 00:53:20;;;;;;;9.70;3.40;;;16.30;99.90;;;;;;5053462;28;20485;-63
2022/07/27 00:55:47;;;;;;;9.25;3.08;;;16.30;99.90;;;;;;5054057;28;20056;-65
2022/07/27 00:58:14;;;;;;;7.65;2.67;;;16.20;99.90;;;;;;5052508;28;20052;-65
2022/07/27 01:00:41;;;;;;;12.35;3.65;;;16.20;99.90;;;;;;5037217;28;20049;-65
2022/07/27 01:03:07;;;;;;;11.18;3.35;;;16.20;99.90;;;;;;5045407;28;20369;-63
2022/07/27 01:05:36;;;;;;;7.35;2.90;;;16.20;99.90;;;;;;5052883;28;20072;-63
2022/07/27 01:08:11;;;;;;;7.55;2.80;;;16.20;99.90;;;;;;5051626;28;20072;-65
2022/07/27 01:10:38;;;;;;;8.10;2.50;;;16.20;99.90;;;;;;5053437;28;20163;-65
2022/07/27 01:13:05;;;;;;;8.25;2.80;;;16.30;99.90;;;;;;5034455;28;20480;-62
2022/07/27 01:15:38;;;;;;;5.57;2.40;;;16.30;99.90;;;;;;5054011;28;20056;-65
2022/07/27 01:18:10;;;;;;;7.68;3.03;;;16.30;99.90;;;;;;5049071;28;20037;-62
2022/07/27 01:20:39;;;;;;;10.98;2.90;;;16.30;99.90;;;;;;5053301;28;20087;-68
2022/07/27 01:23:06;;;;;;;8.48;2.67;;;16.30;99.90;;;;;;5050578;28;20507;-65
2022/07/27 01:25:33;;;;;;;8.38;2.50;;;16.30;99.90;;;;;;5053299;28;20052;-65
2022/07/27 01:27:59;;;;;;;8.38;2.67;;;16.30;99.90;;;;;;5052853;28;20052;-65
2022/07/27 01:30:28;;;;;;;6.30;2.45;;;16.30;99.90;;;;;;5052338;28;20052;-64
2022/07/27 01:33:02;;;;;;;10.55;3.10;;;16.30;99.90;;;;;;5052259;28;20443;-65
2022/07/27 01:35:29;;;;;;;13.18;3.78;;;16.40;99.90;;;;;;5051376;28;20477;-65
2022/07/27 01:37:56;;;;;;;8.02;2.95;;;16.30;99.90;;;;;;5053225;28;20052;-65
2022/07/27 01:40:23;;;;;;;6.93;2.70;;;16.30;99.90;;;;;;5035723;28;20049;-65
2022/07/27 01:42:50;;;;;;;8.15;2.80;;;16.40;99.90;;;;;;5053951;28;20056;-65
2022/07/27 01:45:17;;;;;;;5.65;2.63;;;16.40;99.90;;;;;;5050079;28;20048;-65
2022/07/27 01:47:45;;;;;;;8.82;3.00;;;16.40;99.90;;;;;;5052430;28;20049;-63
2022/07/27 01:50:12;;;;;;;6.45;3.38;;;16.40;99.90;;;;;;5048053;28;20057;-63
2022/07/27 01:52:39;;;;;;;7.88;2.40;;;16.40;99.90;;;;;;5050149;28;20053;-63
2022/07/27 01:55:09;;;;;;;9.35;3.15;;;16.40;99.90;;;;;;5051750;28;20048;-63
2022/07/27 01:57:36;;;;;;;6.07;2.95;;;16.40;99.90;;;;;;5052691;28;20052;-63
2022/07/27 02:00:09;;;;;;;9.98;2.90;;;16.40;99.90;;;;;;5053664;28;20048;-65
2022/07/27 02:02:36;;;;;;;8.45;2.58;;;16.30;99.90;;;;;;5035940;28;20520;-65
2022/07/27 02:05:04;;;;;;;7.30;2.83;;;16.30;99.90;;;;;;5019390;28;20041;-63
2022/07/27 02:07:31;;;;;;;9.50;3.75;;;16.40;99.90;;;;;;5050348;28;20400;-63
2022/07/27 02:09:58;;;;;;;7.30;2.60;;;16.30;99.90;;;;;;5050815;28;20048;-62
2022/07/27 02:12:37;;;;;;;9.82;3.05;;;16.40;99.90;;;;;;5052102;28;20060;-63
2022/07/27 02:15:07;;;;;;;5.15;2.30;;;16.40;99.90;;;;;;5051382;28;20064;-63
2022/07/27 02:17:41;;;;;;;6.30;2.50;;;16.40;99.90;;;;;;5052310;28;20041;-66
2022/07/27 02:20:08;;;;;;;4.97;2.15;;;16.30;99.90;;;;;;5053359;28;20041;-63
2022/07/27 02:22:35;;;;;;;6.45;3.50;;;16.30;99.90;;;;;;5049977;28;20484;-64
2022/07/27 02:25:03;;;;;;;12.50;2.70;;;16.40;99.90;;;;;;5052989;28;20045;-65
2022/07/27 02:27:30;;;;;;;8.60;2.30;;;16.30;99.90;;;;;;5052061;28;20053;-65
2022/07/27 02:29:57;;;;;;;6.95;3.22;;;16.30;99.90;;;;;;5052106;28;20045;-64
2022/07/27 02:32:24;;;;;;;7.00;2.15;;;16.30;99.90;;;;;;5052312;28;20511;-64
2022/07/27 02:34:51;;;;;;;10.35;2.75;;;16.30;99.90;;;;;;5051318;28;20136;-67
2022/07/27 02:37:18;;;;;;;8.13;2.83;;;16.40;99.90;;;;;;5050040;28;20428;-64
2022/07/27 02:39:44;;;;;;;6.40;3.42;;;16.40;99.90;;;;;;5051353;28;20053;-65
2022/07/27 02:42:11;;;;;;;7.55;2.85;;;16.40;99.90;;;;;;5035222;28;20103;-64
2022/07/27 02:44:39;;;;;;;7.20;2.70;;;16.40;99.90;;;;;;5051853;28;20051;-65
2022/07/27 02:47:06;;;;;;;6.78;2.40;;;16.40;99.90;;;;;;5051826;28;20493;-66
2022/07/27 02:49:33;;;;;;;5.85;2.35;;;16.40;99.90;;;;;;5050166;28;20524;-65
2022/07/27 02:52:00;;;;;;;11.27;3.38;;;16.40;99.90;;;;;;5051646;28;20132;-65
2022/07/27 02:54:27;;;;;;;8.10;2.90;;;16.40;99.90;;;;;;5050523;28;20073;-66
2022/07/27 02:56:54;;;;;;;7.05;3.55;;;16.40;99.90;;;;;;5051222;28;20060;-64
2022/07/27 02:59:21;;;;;;;11.75;2.80;;;16.40;99.90;;;;;;5052804;28;20057;-65
2022/07/27 03:01:48;;;;;;;8.90;2.42;;;16.30;99.90;;;;;;5032400;28;20497;-66
2022/07/27 03:04:15;;;;;;;12.68;2.75;;;16.30;99.90;;;;;;5051559;28;20049;-65
2022/07/27 03:06:42;;;;;;;7.40;2.50;;;16.30;99.90;;;;;;5027129;28;20067;-64
2022/07/27 03:09:09;;;;;;;11.13;2.40;;;16.30;99.90;;;;;;5050662;28;20052;-65
2022/07/27 03:11:37;;;;;;;7.50;2.58;;;16.30;99.90;;;;;;5050075;28;20044;-68
2022/07/27 03:14:04;;;;;;;5.68;2.00;;;16.30;99.90;;;;;;5051198;28;20060;-68
2022/07/27 03:16:31;;;;;;;6.88;2.65;;;16.30;99.90;;;;;;5049998;28;20053;-64
2022/07/27 03:18:58;;;;;;;6.40;2.40;;;16.30;99.90;;;;;;5051723;28;20040;-65
2022/07/27 03:21:25;;;;;;;7.15;1.73;;;16.30;99.90;;;;;;5050918;28;20053;-65
2022/07/27 03:23:51;;;;;;;6.13;1.80;;;16.20;99.90;;;;;;5051749;28;20057;-64
2022/07/27 03:26:18;;;;;;;4.13;1.85;;;16.20;99.90;;;;;;5050161;28;20041;-64
2022/07/27 03:28:45;;;;;;;4.20;2.13;;;16.30;99.90;;;;;;5051197;28;20087;-66
2022/07/27 03:31:12;;;;;;;3.65;2.03;;;16.30;99.90;;;;;;5053541;28;20447;-70
2022/07/27 03:33:39;;;;;;;6.63;2.05;;;16.30;99.90;;;;;;5054667;28;20124;-64
2022/07/27 03:36:06;;;;;;;5.03;1.98;;;16.30;99.90;;;;;;5051047;28;20399;-64
2022/07/27 03:38:33;;;;;;;5.07;2.13;;;16.20;99.90;;;;;;5052628;28;20056;-64
2022/07/27 03:41:01;;;;;;;10.88;2.05;;;16.20;99.90;;;;;;5053773;28;20048;-64
2022/07/27 03:43:28;;;;;;;5.18;1.67;;;16.20;99.90;;;;;;5049461;28;20098;-66
2022/07/27 03:45:55;;;;;;;5.90;1.88;;;16.20;99.90;;;;;;5055536;28;20045;-64
2022/07/27 03:48:21;;;;;;;6.30;2.60;;;16.20;99.90;;;;;;5051007;28;20048;-64
2022/07/27 03:50:48;;;;;;;5.40;2.75;;;16.20;99.90;;;;;;5035479;28;20513;-65
2022/07/27 03:53:16;;;;;;;4.53;2.10;;;16.20;99.90;;;;;;5052498;28;20037;-63
2022/07/27 03:55:43;;;;;;;5.97;2.25;;;16.20;99.90;;;;;;5051660;28;20057;-64
2022/07/27 03:58:10;;;;;;;3.80;1.75;;;16.20;99.90;;;;;;5050631;28;20041;-64
2022/07/27 04:00:37;;;;;;;5.40;2.28;;;16.20;99.90;;;;;;5052803;28;20045;-64
2022/07/27 04:03:04;;;;;;;4.35;1.50;;;16.20;99.90;;;;;;5052348;28;20064;-64
2022/07/27 04:05:31;;;;;;;9.32;1.88;;;16.20;99.90;;;;;;5051348;28;20512;-68
2022/07/27 04:07:58;;;;;;;7.20;2.08;;;16.20;99.90;;;;;;5049929;28;20061;-64
2022/07/27 04:10:25;;;;;;;9.40;2.47;;;16.20;99.90;;;;;;5050001;28;20056;-64
2022/07/27 04:12:57;;;;;;;5.93;2.53;;;16.20;99.90;;;;;;5054763;28;20503;-65
2022/07/27 04:15:25;;;;;;;4.78;2.10;;;16.20;99.90;;;;;;5053111;28;20053;-64
2022/07/27 04:17:52;;;;;;;7.28;2.00;;;16.20;99.90;;;;;;5050212;28;20049;-62
2022/07/27 04:20:23;;;;;;;4.13;2.08;;;16.20;99.90;;;;;;5050553;28;20099;-64
2022/07/27 04:22:50;;;;;;;3.83;1.60;;;16.20;99.90;;;;;;5053935;28;20040;-64
2022/07/27 04:25:16;;;;;;;6.07;2.40;;;16.20;99.90;;;;;;5052746;28;20053;-64
2022/07/27 04:27:43;;;;;;;10.65;2.25;;;16.20;99.90;;;;;;5049547;28;20075;-64
2022/07/27 04:30:11;;;;;;;3.72;1.65;;;16.20;99.90;;;;;;5050738;28;20044;-64
2022/07/27 04:32:38;;;;;;;4.45;1.52;;;16.20;99.90;;;;;;5049729;28;20503;-64
2022/07/27 04:35:06;;;;;;;8.23;3.08;;;16.20;99.90;;;;;;5033802;28;20045;-64
2022/07/27 04:37:33;;;;;;;8.30;2.70;;;16.20;99.90;;;;;;5046603;28;20067;-64
2022/07/27 04:40:00;;;;;;;9.57;1.92;;;16.20;99.90;;;;;;5049970;28;20044;-64
2022/07/27 04:42:28;;;;;;;6.65;1.90;;;16.30;99.90;;;;;;5054394;28;20053;-67
2022/07/27 04:44:56;;;;;;;5.65;2.08;;;16.30;99.90;;;;;;5048653;28;20515;-64
2022/07/27 04:47:22;;;;;;;8.68;2.50;;;16.30;99.90;;;;;;5053604;28;20420;-64
2022/07/27 04:49:49;;;;;;;5.80;2.03;;;16.30;99.90;;;;;;5051671;28;20053;-64
2022/07/27 04:52:16;;;;;;;4.55;1.92;;;16.30;99.90;;;;;;5051319;28;20056;-64
2022/07/27 04:54:44;;;;;;;5.22;2.00;;;16.40;99.90;;;;;;5049863;28;20440;-65
2022/07/27 04:57:11;;;;;;;6.30;2.30;;;16.50;99.90;;;;;;5051003;28;20041;-64
2022/07/27 04:59:38;;;;;;;5.10;1.90;;;16.50;99.90;;;;;;5032561;28;20118;-65
2022/07/27 05:02:04;;;;;;;6.60;1.92;;;16.60;99.90;;;;;;5051588;28;20045;-61
2022/07/27 05:04:31;;;;;;;5.22;2.22;;;16.60;99.90;;;;;;5050225;28;20053;-62
2022/07/27 05:06:58;;;;;;;3.95;1.52;;;16.80;99.90;;;;;;5048616;28;20446;-62
2022/07/27 05:09:25;;;;;;;10.70;2.60;;;17.10;99.90;;;;;;5050662;28;20037;-61
2022/07/27 05:11:52;;;;;;;3.78;1.70;;;17.20;99.90;;;;;;5033542;28;20048;-61
2022/07/27 05:14:19;;;;;;;4.93;1.90;;;17.20;99.90;;;;;;5052572;28;20410;-61
2022/07/27 05:16:47;;;;;;;4.32;1.92;;;17.20;99.90;;;;;;5051313;28;20052;-63
2022/07/27 05:19:14;;;;;;;7.20;1.83;;;17.20;99.90;;;;;;5053021;28;20048;-62
2022/07/27 05:21:42;;;;;;;6.25;1.83;;;17.20;99.90;;;;;;5054838;28;20142;-62
2022/07/27 05:24:09;;;;;;;6.57;3.38;;;17.20;99.90;;;;;;5053114;28;20052;-62
2022/07/27 05:26:36;;;;;;;4.75;1.67;;;17.10;99.90;;;;;;5054442;28;20045;-62
2022/07/27 05:29:03;;;;;;;8.20;2.00;;;17.10;99.90;;;;;;5053322;28;20053;-62
2022/07/27 05:31:30;;;;;;;6.60;2.30;;;17.10;99.90;;;;;;5038978;28;20049;-62
2022/07/27 05:33:57;;;;;;;4.72;1.90;;;17.20;99.90;;;;;;5050321;28;20048;-62
2022/07/27 05:36:24;;;;;;;7.93;2.22;;;17.10;99.90;;;;;;5051196;28;20098;-62
2022/07/27 05:38:51;;;;;;;6.75;1.98;;;17.10;99.90;;;;;;5052963;28;20052;-62
2022/07/27 05:41:25;;;;;;;3.50;1.50;;;17.00;99.90;;;;;;5053475;28;20052;-62
2022/07/27 05:43:53;;;;;;;9.25;1.83;;;17.00;99.90;;;;;;5054277;28;20095;-61
2022/07/27 05:46:20;;;;;;;7.13;1.60;;;17.00;99.90;;;;;;5055670;28;20045;-62
2022/07/27 05:48:48;;;;;;;24.33;2.35;;;17.10;99.90;;;;;;5054180;28;20044;-67
2022/07/27 05:51:15;;;;;;;10.68;4.85;;;17.20;99.90;;;;;;5057753;28;20040;-62
2022/07/27 05:53:41;;;;;;;8.05;2.80;;;17.30;99.90;;;;;;5034801;28;20481;-72
2022/07/27 05:56:08;;;;;;;4.88;1.60;;;17.30;99.90;;;;;;5035631;28;20051;-66
2022/07/27 05:58:35;;;;;;;6.05;2.08;;;17.30;99.90;;;;;;5052739;28;20049;-68
2022/07/27 06:01:02;;;;;;;7.30;1.92;;;17.40;99.90;;;;;;5055677;28;20040;-68
2022/07/27 06:03:29;;;;;;;4.55;1.83;;;17.40;99.90;;;;;;5045609;28;20048;-69
2022/07/27 06:08:42;;;;;;;7.97;2.80;;;17.40;99.90;;;;;;5053299;28;20044;-69
2022/07/27 06:11:09;;;;;;;6.70;2.83;;;17.50;99.90;;;;;;5053353;28;20056;-69
2022/07/27 06:13:37;;;;;;;7.85;2.08;;;17.50;99.90;;;;;;5051711;28;20049;-69
2022/07/27 06:16:08;;;;;;;4.57;1.50;;;17.50;99.90;;;;;;5037540;28;20045;-67
2022/07/27 06:18:35;;;;;;;5.97;1.90;;;17.50;99.90;;;;;;5058674;28;20040;-65
2022/07/27 06:21:03;;;;;;;7.55;2.30;;;17.60;99.90;;;;;;5053859;28;20045;-65
2022/07/27 06:23:30;;;;;;;6.38;2.35;;;17.60;99.90;;;;;;5054648;28;20121;-65
2022/07/27 06:25:57;;;;;;;7.88;1.88;;;17.70;99.90;;;;;;5051982;28;20041;-61
2022/07/27 06:28:24;;;;;;;8.50;2.58;;;17.80;99.90;;;;;;5043730;28;20514;-62
2022/07/27 06:30:52;;;;;;;7.18;2.20;;;17.90;99.90;;;;;;5051668;28;20480;-61
2022/07/27 06:33:29;;;;;;;6.18;2.13;;;18.00;99.90;;;;;;5052370;28;20049;-64
2022/07/27 06:35:57;;;;;;;5.97;1.77;;;18.10;99.90;;;;;;5054179;28;20049;-69
2022/07/27 06:38:25;;;;;;;8.75;2.70;;;18.10;99.90;;;;;;5052417;28;20087;-69
2022/07/27 06:40:52;;;;;;;4.60;1.73;;;18.10;99.90;;;;;;5035447;28;20063;-69
2022/07/27 06:43:20;;;;;;;7.90;2.20;;;18.20;99.90;;;;;;5052667;28;20060;-69
2022/07/27 06:45:47;;;;;;;5.00;1.80;;;18.30;99.90;;;;;;5052092;28;20049;-70
2022/07/27 06:48:14;;;;;;;5.03;1.63;;;18.30;99.90;;;;;;5054204;28;20044;-68
2022/07/27 06:50:41;;;;;;;6.75;2.15;;;18.40;99.90;;;;;;5055273;28;20499;-68
2022/07/27 06:53:08;;;;;;;8.52;2.83;;;18.50;99.90;;;;;;5051956;28;20052;-66
2022/07/27 06:55:35;;;;;;;6.32;2.30;;;18.50;99.90;;;;;;5051921;28;20045;-67
2022/07/27 06:58:02;;;;;;;7.55;3.13;;;18.60;99.90;;;;;;5055274;28;20041;-68
2022/07/27 07:00:30;;;;;;;5.68;1.80;;;18.60;99.90;;;;;;5052993;28;20045;-67
2022/07/27 07:03:01;;;;;;;5.13;1.40;;;18.60;99.90;;;;;;5058181;28;20052;-68
2022/07/27 07:05:29;;;;;;;5.90;1.73;;;18.70;99.90;;;;;;5052168;28;20068;-67
2022/07/27 07:07:56;;;;;;;6.53;2.00;;;18.70;99.90;;;;;;5035361;28;20057;-67
2022/07/27 07:10:23;;;;;;;6.95;1.60;;;18.70;99.90;;;;;;5051430;28;20056;-68
2022/07/27 07:12:54;;;;;;;5.95;2.13;;;18.70;99.90;;;;;;5035638;28;20048;-68
2022/07/27 07:15:25;;;;;;;8.07;2.10;;;18.70;99.90;;;;;;5036053;28;20045;-67
2022/07/27 07:17:53;;;;;;;4.25;2.13;;;18.70;99.90;;;;;;5019168;28;20048;-67
2022/07/27 07:20:20;;;;;;;6.00;1.63;;;18.60;99.90;;;;;;5051677;28;20045;-68
2022/07/27 07:22:47;;;;;;;5.45;1.63;;;18.70;99.90;;;;;;5035034;28;20053;-67
2022/07/27 07:25:13;;;;;;;8.18;2.17;;;18.70;99.90;;;;;;5051284;28;20049;-67
2022/07/27 07:27:40;;;;;;;8.27;2.72;;;18.70;99.90;;;;;;5051088;28;20124;-68
2022/07/27 07:30:08;;;;;;;7.38;2.95;;;18.70;99.90;;;;;;5054641;28;20040;-67
2022/07/27 07:32:35;;;;;;;6.40;1.80;;;18.80;99.90;;;;;;5052646;28;20063;-67
2022/07/27 07:35:03;;;;;;;6.63;1.95;;;18.80;99.90;;;;;;5052660;28;20480;-69
2022/07/27 07:37:31;;;;;;;4.53;1.83;;;18.80;99.90;;;;;;5034469;28;20396;-68
2022/07/27 07:40:00;;;;;;;9.20;2.47;;;18.80;99.90;;;;;;5050346;28;20789;-68
2022/07/27 07:42:55;;;;;;;10.07;2.15;;;18.80;99.90;;;;;;5037591;28;20103;-67
2022/07/27 07:45:22;;;;;;;10.73;2.28;;;18.90;99.90;;;;;;5052574;28;20087;-67
2022/07/27 07:47:50;;;;;;;4.90;1.80;;;18.90;99.90;;;;;;5017018;28;20059;-66
2022/07/27 07:50:17;;;;;;;8.30;1.50;;;18.90;99.90;;;;;;5034640;28;20049;-68
2022/07/27 07:52:44;;;;;;;4.57;1.42;;;19.00;99.90;;;;;;5052305;28;20803;-69
2022/07/27 07:55:11;;;;;;;6.43;2.10;;;19.10;99.90;;;;;;5034721;28;20472;-70
2022/07/27 07:57:38;;;;;;;3.90;1.73;;;19.20;99.90;;;;;;5050895;28;20092;-71
2022/07/27 08:00:06;;;;;;;5.20;1.95;;;19.20;99.90;;;;;;5051244;28;20053;-68
2022/07/27 08:02:45;;;;;;;5.88;1.75;;;19.10;99.90;;;;;;5050508;28;20052;-67
2022/07/27 08:05:12;;;;;;;6.00;1.98;;;19.10;99.90;;;;;;5053602;28;20064;-70
2022/07/27 08:07:39;;;;;;;5.82;1.55;;;19.20;99.90;;;;;;5034257;28;20056;-70
2022/07/27 08:10:07;;;;;;;5.68;1.67;;;19.10;99.90;;;;;;5034062;28;20051;-66
2022/07/27 08:12:35;;;;;;;5.35;2.10;;;19.10;99.90;;;;;;5050450;28;20053;-67
2022/07/27 08:15:03;;;;;;;7.77;3.07;;;19.20;99.90;;;;;;5033616;28;20056;-67
2022/07/27 08:17:30;;;;;;;5.53;2.63;;;19.20;99.90;;;;;;5034729;28;20777;-66
2022/07/27 08:19:57;;;;;;;9.45;2.00;;;19.40;99.90;;;;;;5054765;28;20045;-66
2022/07/27 08:22:24;;;;;;;5.63;1.95;;;19.50;99.90;;;;;;5051767;28;20060;-65
2022/07/27 08:24:51;;;;;;;7.25;2.03;;;19.60;99.90;;;;;;5051947;28;20045;-65
2022/07/27 08:27:18;;;;;;;4.65;1.80;;;19.70;99.90;;;;;;5051027;28;20068;-65
2022/07/27 08:29:45;;;;;;;5.88;1.88;;;19.80;99.90;;;;;;5050732;28;20057;-65
2022/07/27 08:32:17;;;;;;;6.57;2.35;;;19.90;99.90;;;;;;5050466;28;20052;-65
2022/07/27 08:34:44;;;;;;;5.95;1.90;;;20.00;99.90;;;;;;5051836;28;20057;-65
2022/07/27 08:37:11;;;;;;;4.55;1.92;;;20.10;99.90;;;;;;5051932;28;20052;-67
2022/07/27 08:39:41;;;;;;;4.90;1.30;;;20.20;99.90;;;;;;5050547;28;20099;-65
2022/07/27 08:42:28;;;;;;;5.38;1.98;;;20.20;99.90;;;;;;5049815;28;20095;-65
2022/07/27 08:44:55;;;;;;;5.00;1.23;;;20.20;99.90;;;;;;5034227;28;20064;-65
2022/07/27 08:47:22;;;;;;;3.45;1.10;;;20.20;99.90;;;;;;5033842;28;20136;-65
2022/07/27 08:49:49;;;;;;;4.45;1.65;;;20.20;99.90;;;;;;5050570;28;20045;-65
2022/07/27 08:52:16;;;;;;;5.38;1.77;;;20.20;99.90;;;;;;5052013;28;20128;-65
2022/07/27 08:54:43;;;;;;;8.27;1.85;;;20.10;99.90;;;;;;5037074;28;20068;-65
2022/07/27 08:57:10;;;;;;;3.78;1.30;;;20.00;99.90;;;;;;5054658;28;20049;-65
2022/07/27 08:59:37;;;;;;;3.85;1.50;;;20.00;99.90;;;;;;5054093;28;20488;-65
2022/07/27 09:02:07;;;;;;;4.35;1.65;;;20.10;99.90;;;;;;5055669;28;20049;-66
2022/07/27 09:04:34;;;;;;;3.50;1.73;;;20.10;99.90;;;;;;5038586;28;20258;-66
2022/07/27 09:07:01;;;;;;;3.88;1.42;;;20.30;99.90;;;;;;5053841;28;20057;-65
2022/07/27 09:09:29;;;;;;;5.22;1.50;;;20.50;99.90;;;;;;5054206;28;20045;-65
2022/07/27 09:12:09;;;;;;;4.22;1.10;;;20.70;99.90;;;;;;5037287;28;20041;-65
2022/07/27 09:14:37;;;;;;;3.13;1.45;;;21.00;99.90;;;;;;5054420;28;20049;-66
2022/07/27 09:17:24;;;;;;;3.00;1.50;;;21.20;99.90;;;;;;5037968;28;20049;-65
2022/07/27 09:20:15;;;;;;;7.05;2.05;;;21.20;99.90;;;;;;5040470;28;20461;-65
2022/07/27 09:22:52;;;;;;;4.18;1.48;;;21.30;99.90;;;;;;5038591;28;20432;-65
2022/07/27 09:25:24;;;;;;;4.32;1.65;;;21.30;99.90;;;;;;5054052;28;20524;-65
2022/07/27 09:28:11;;;;;;;2.70;1.30;;;21.40;99.90;;;;;;5026783;28;20416;-65
2022/07/27 09:30:42;;;;;;;5.45;1.38;;;21.50;99.90;;;;;;5055255;28;20056;-65
2022/07/27 09:33:09;;;;;;;7.97;1.90;;;21.70;99.90;;;;;;5053986;28;20064;-65
2022/07/27 09:35:36;;;;;;;4.72;2.03;;;21.60;99.90;;;;;;5053408;28;20041;-66
2022/07/27 09:38:16;;;;;;;3.92;1.30;;;21.70;99.90;;;;;;5034189;28;20397;-66
2022/07/27 09:40:43;;;;;;;3.15;1.80;;;21.70;99.90;;;;;;5040029;28;20048;-66
2022/07/27 09:43:14;;;;;;;4.70;1.55;;;21.80;99.90;;;;;;5054306;28;20048;-66
2022/07/27 09:46:05;;;;;;;2.95;1.42;;;21.90;99.90;;;;;;5053508;28;20045;-66
2022/07/27 09:48:33;;;;;;;7.78;3.20;;;21.80;99.90;;;;;;5037693;28;20098;-66
2022/07/27 09:51:02;;;;;;;6.28;1.77;;;21.80;99.90;;;;;;5037287;28;20071;-66
2022/07/27 09:53:48;;;;;;;5.13;2.22;;;21.90;99.90;;;;;;5040088;28;20060;-66
2022/07/27 09:56:16;;;;;;;5.80;1.40;;;21.80;99.90;;;;;;5036446;28;20064;-66
2022/07/27 09:58:48;;;;;;;6.93;1.60;;;21.90;99.90;;;;;;5054341;28;20477;-67
2022/07/27 10:01:16;;;;;;;3.92;1.58;;;21.80;99.90;;;;;;5053569;28;20372;-66
2022/07/27 10:03:44;;;;;;;6.75;1.80;;;21.80;99.90;;;;;;5054501;28;20538;-66
2022/07/27 10:06:11;;;;;;;4.73;1.67;;;21.90;99.90;;;;;;5052669;28;20055;-65
2022/07/27 10:08:40;;;;;;;5.28;1.60;;;21.90;99.90;;;;;;5036620;28;20057;-66
2022/07/27 10:11:12;;;;;;;4.05;1.50;;;21.90;99.90;;;;;;5021246;28;20466;-66
2022/07/27 10:13:39;;;;;;;3.70;1.60;;;22.20;99.90;;;;;;5052927;28;20045;-66
2022/07/27 10:16:20;;;;;;;4.60;2.08;;;22.30;99.90;;;;;;5052087;28;20045;-66
2022/07/27 10:19:12;;;;;;;3.47;1.75;;;22.40;99.90;;;;;;5035413;28;20052;-65
2022/07/27 10:21:42;;;;;;;3.58;1.60;;;22.50;99.90;;;;;;5050850;28;20053;-65
2022/07/27 10:24:11;;;;;;;4.13;1.58;;;22.50;99.90;;;;;;5052405;28;20045;-66
2022/07/27 10:26:40;;;;;;;4.90;1.60;;;22.40;99.90;;;;;;5052174;28;20051;-66
2022/07/27 10:29:13;;;;;;;5.70;1.75;;;22.40;99.90;;;;;;5035294;28;20047;-66
2022/07/27 10:31:41;;;;;;;3.60;1.48;;;22.30;99.90;;;;;;5053667;28;20048;-66
2022/07/27 10:34:09;;;;;;;4.20;1.38;;;22.40;99.90;;;;;;5036126;28;20045;-66
2022/07/27 10:36:48;;;;;;;3.45;1.40;;;22.50;99.90;;;;;;5047033;28;20049;-65
2022/07/27 10:39:32;;;;;;;3.42;1.30;;;22.60;99.90;;;;;;5019812;28;20076;-66
2022/07/27 10:42:25;;;;;;;4.22;2.13;;;22.80;99.90;;;;;;5033541;28;20408;-65
2022/07/27 10:45:05;;;;;;;4.53;1.90;;;23.10;99.90;;;;;;5052777;28;20053;-65
2022/07/27 10:47:40;;;;;;;7.07;1.85;;;23.20;99.90;;;;;;5051702;28;20045;-66
2022/07/27 10:50:16;;;;;;;5.53;2.00;;;23.60;99.90;;;;;;5050915;28;20048;-67
2022/07/27 10:52:45;;;;;;;4.75;2.53;;;23.80;99.80;;;;;;5053499;28;20056;-67
2022/07/27 10:55:30;;;;;;;4.22;1.88;;;23.80;98.30;;;;;;5035479;28;20051;-66
2022/07/27 10:58:03;;;;;;;5.85;2.47;;;23.70;95.70;;;;;;5048438;28;20080;-64
2022/07/27 11:00:50;;;;;;;3.33;1.30;;;23.40;95.20;;;;;;5050602;28;20049;-67
2022/07/27 11:03:34;;;;;;;2.95;1.55;;;23.30;95.90;;;;;;5043355;28;20075;-67
2022/07/27 11:06:11;;;;;;;3.50;1.67;;;23.30;97.00;;;;;;5049657;28;20049;-68
2022/07/27 11:08:59;;;;;;;4.55;1.52;;;23.40;97.30;;;;;;5036984;28;20049;-70
2022/07/27 11:11:47;;;;;;;4.43;1.70;;;23.50;96.10;;;;;;5036922;28;20455;-69
2022/07/27 11:14:14;;;;;;;5.70;1.58;;;23.70;96.20;;;;;;5051265;28;20045;-65
2022/07/27 11:16:44;;;;;;;4.85;1.50;;;24.00;95.40;;;;;;5051231;28;20057;-65
2022/07/27 11:19:29;;;;;;;2.33;1.02;;;24.10;94.60;;;;;;5051172;28;20484;-64
2022/07/27 11:21:56;;;;;;;3.00;1.40;;;24.20;92.40;;;;;;5050890;28;20049;-64
2022/07/27 11:24:23;;;;;;;2.80;1.27;;;24.20;93.20;;;;;;5053104;28;20053;-70
2022/07/27 11:26:50;;;;;;;7.05;2.13;;;24.20;91.50;;;;;;5031136;28;20050;-67
2022/07/27 11:29:19;;;;;;;3.17;1.98;;;24.10;91.40;;;;;;5024190;28;20181;-70
2022/07/27 11:31:47;;;;;;;5.18;1.55;;;24.00;92.70;;;;;;5051669;28;20538;-66
2022/07/27 11:34:28;;;;;;;2.50;1.40;;;24.10;92.70;;;;;;5025223;28;20587;-67
2022/07/27 11:36:57;;;;;;;2.88;1.50;;;24.20;93.40;;;;;;5035494;28;20052;-74
2022/07/27 11:39:25;;;;;;;5.30;1.50;;;24.20;93.00;;;;;;5034357;28;20404;-72
2022/07/27 11:42:12;;;;;;;4.60;1.50;;;24.30;92.40;;;;;;5024110;28;20049;-73
2022/07/27 11:44:47;;;;;;;8.15;1.65;;;24.30;92.40;;;;;;5051740;28;20480;-74
2022/07/27 11:47:22;;;;;;;4.50;1.58;;;24.30;93.50;;;;;;5052338;28;20055;-73
2022/07/27 11:49:50;;;;;;;9.98;2.22;;;24.20;91.90;;;;;;5050754;28;20071;-67
2022/07/27 11:52:17;;;;;;;5.50;2.00;;;23.90;92.80;;;;;;5053739;28;20057;-72
2022/07/27 11:54:49;;;;;;;4.35;1.73;;;23.50;93.40;;;;;;5015432;28;20152;-72
2022/07/27 11:57:17;;;;;;;10.43;3.00;;;23.20;94.20;;;;;;5048132;28;20060;-72
2022/07/27 11:59:45;;;;;;;6.45;2.20;;;22.80;95.80;;;;;;5051440;28;20092;-72
2022/07/27 12:02:13;;;;;;;5.35;2.30;;;22.50;96.40;;;;;;5051841;28;20052;-63
2022/07/27 12:04:41;;;;;;;9.60;1.90;;;22.40;97.60;;;;;;5054862;28;20052;-63
2022/07/27 12:07:09;;;;;;;7.25;2.83;;;22.20;98.70;;;;;;5051569;28;20053;-64
2022/07/27 12:09:50;;;;;;;6.03;1.77;;;22.10;99.50;;;;;;5051052;28;20049;-68
2022/07/27 12:12:19;;;;;;;5.10;2.25;;;22.00;99.90;;;;;;5034493;28;20057;-68
2022/07/27 12:14:56;;;;;;;8.23;2.88;;;21.80;99.90;;;;;;5049674;28;20048;-68
2022/07/27 12:17:36;;;;;;;7.85;3.28;;;21.70;99.90;;;;;;5048040;28;20152;-69
2022/07/27 12:20:09;;;;;;;8.25;3.58;;;21.50;99.90;;;;;;5034247;28;20041;-68
2022/07/27 12:22:44;;;;;;;6.22;2.60;;;21.50;99.90;;;;;;5053647;28;20060;-68
2022/07/27 12:25:17;;;;;;;4.90;2.08;;;21.40;99.90;;;;;;5035026;28;20049;-68
2022/07/27 12:27:57;;;;;;;8.52;2.85;;;21.30;99.90;;;;;;5050373;28;20056;-68
2022/07/27 12:30:31;;;;;;;4.95;2.45;;;21.30;99.90;;;;;;5030631;28;20046;-74
2022/07/27 12:32:58;;;;;;;4.75;2.15;;;21.20;99.90;;;;;;5058821;28;20048;-69
2022/07/27 12:35:27;;;;;;;6.07;2.10;;;21.20;99.90;;;;;;5038063;28;20479;-69
2022/07/27 12:38:06;;;;;;;6.88;2.30;;;21.10;99.90;;;;;;5054885;28;20053;-69
2022/07/27 12:40:34;;;;;;;6.40;2.08;;;21.10;99.90;;;;;;5050960;28;20049;-69
2022/07/27 12:43:02;;;;;;;4.72;2.28;;;21.00;99.90;;;;;;5033990;28;20049;-69
2022/07/27 12:45:31;;;;;;;6.75;2.10;;;20.90;99.90;;;;;;5017982;28;20441;-69
2022/07/27 12:48:10;;;;;;;;;;;20.80;99.90;;;;;;5034043;28;20045;-75
2022/07/27 12:50:38;;;;;;;5.25;2.95;;;20.70;99.90;;;;;;5046451;28;19925;-64
2022/07/27 12:53:06;;;;;;;7.70;3.27;;;20.70;99.90;;;;;;5049479;28;20131;-66
2022/07/27 12:55:33;;;;;;;9.13;3.08;;;20.60;99.90;;;;;;5052054;28;20298;-68
2022/07/27 12:58:00;;;;;;;7.10;3.20;;;20.60;99.90;;;;;;5051300;28;20059;-68
2022/07/27 13:00:30;;;;;;;6.18;2.33;;;20.60;99.90;;;;;;5052402;28;20052;-68